createdAt,value
2023-03-26T00:00:18.074Z,150.80
2023-03-26T00:04:18.001Z,150.08
2023-03-26T00:08:17.943Z,149.26
2023-03-26T00:12:17.857Z,148.00
2023-03-26T00:16:17.866Z,150.33
2023-03-26T00:20:17.734Z,147.74
2023-03-26T00:24:17.661Z,150.44
2023-03-26T00:28:17.602Z,147.62
2023-03-26T00:32:17.545Z,151.17
2023-03-26T00:36:17.541Z,148.81
2023-03-26T00:40:18.365Z,150.57
2023-03-26T00:44:17.360Z,148.15
2023-03-26T00:48:17.343Z,149.34
2023-03-26T00:52:17.213Z,149.05
2023-03-26T00:56:17.148Z,148.96
2023-03-26T01:00:17.165Z,147.02
2023-03-26T01:04:17.071Z,145.74
2023-03-26T01:08:16.977Z,143.84
2023-03-26T01:12:16.920Z,141.65
2023-03-26T01:16:16.937Z,143.14
2023-03-26T01:20:16.777Z,141.69
2023-03-26T01:24:16.815Z,143.73
2023-03-26T01:28:16.698Z,142.00
2023-03-26T01:32:16.668Z,143.28
2023-03-26T01:36:16.585Z,145.29
2023-03-26T01:40:16.828Z,144.05
2023-03-26T01:44:16.459Z,142.87
2023-03-26T01:48:16.465Z,144.70
2023-03-26T01:52:16.337Z,146.17
2023-03-26T01:56:16.305Z,142.65
2023-03-26T02:00:16.198Z,144.44
2023-03-26T02:04:16.125Z,141.63
2023-03-26T02:08:16.078Z,140.80
2023-03-26T02:12:16.012Z,141.14
2023-03-26T02:16:15.989Z,136.08
2023-03-26T02:20:15.895Z,141.69
2023-03-26T02:24:15.824Z,139.80
2023-03-26T02:28:15.753Z,142.05
2023-03-26T02:32:15.688Z,139.08
2023-03-26T02:36:15.660Z,134.03
2023-03-26T02:40:15.556Z,136.97
2023-03-26T02:44:15.492Z,136.99
2023-03-26T02:48:15.443Z,135.89
2023-03-26T02:52:15.368Z,136.59
2023-03-26T02:56:15.305Z,137.70
2023-03-26T03:00:15.364Z,135.96
2023-03-26T03:04:15.142Z,139.76
2023-03-26T03:08:15.072Z,138.12
2023-03-26T03:12:15.025Z,136.59
2023-03-26T03:16:14.991Z,133.93
2023-03-26T03:20:14.897Z,135.11
2023-03-26T03:24:14.908Z,136.71
2023-03-26T03:28:14.783Z,135.30
2023-03-26T03:32:14.719Z,136.72
2023-03-26T03:36:20.649Z,133.49
2023-03-26T03:40:15.471Z,136.18
2023-03-26T03:44:14.264Z,134.12
2023-03-26T03:48:14.065Z,135.15
2023-03-26T03:52:13.965Z,135.57
2023-03-26T03:56:13.870Z,132.95
2023-03-26T04:00:13.805Z,135.23
2023-03-26T04:04:13.816Z,136.78
2023-03-26T04:08:13.692Z,138.23
2023-03-26T04:12:13.793Z,136.17
2023-03-26T04:16:13.652Z,133.38
2023-03-26T04:20:13.536Z,134.06
2023-03-26T04:24:13.483Z,128.97
2023-03-26T04:28:13.461Z,133.02
2023-03-26T04:32:13.450Z,135.47
2023-03-26T04:36:13.434Z,135.60
2023-03-26T04:40:13.412Z,134.67
2023-03-26T04:44:13.383Z,139.01
2023-03-26T04:48:13.347Z,131.70
2023-03-26T04:52:13.293Z,129.88
2023-03-26T04:56:13.791Z,129.11
2023-03-26T05:00:13.197Z,131.53
2023-03-26T05:04:13.200Z,132.24
2023-03-26T05:08:13.108Z,133.36
2023-03-26T05:12:13.095Z,128.39
2023-03-26T05:16:13.082Z,132.49
2023-03-26T05:20:13.026Z,129.83
2023-03-26T05:24:13.057Z,127.94
2023-03-26T05:28:12.949Z,127.28
2023-03-26T05:32:12.974Z,127.17
2023-03-26T05:36:12.874Z,130.26
2023-03-26T05:40:12.933Z,129.69
2023-03-26T05:44:12.833Z,131.00
2023-03-26T05:48:12.798Z,129.62
2023-03-26T05:52:12.792Z,127.57
2023-03-26T05:56:12.783Z,133.81
2023-03-26T06:00:12.771Z,131.66
2023-03-26T06:04:12.904Z,129.46
2023-03-26T06:08:12.801Z,134.61
2023-03-26T06:12:12.716Z,132.79
2023-03-26T06:16:26.149Z,131.30
2023-03-26T06:20:13.506Z,131.53
2023-03-26T06:24:12.325Z,133.04
2023-03-26T06:28:12.166Z,130.84
2023-03-26T06:32:19.543Z,129.54
2023-03-26T06:36:13.020Z,130.55
2023-03-26T06:40:12.388Z,129.80
2023-03-26T06:44:12.293Z,129.29
2023-03-26T06:48:11.528Z,128.42
2023-03-26T06:52:11.520Z,127.36
2023-03-26T06:56:11.524Z,129.47
2023-03-26T07:00:11.520Z,126.95
2023-03-26T07:04:11.622Z,122.34
2023-03-26T07:08:11.572Z,123.80
2023-03-26T07:12:11.541Z,123.17
2023-03-26T07:16:11.596Z,124.14
2023-03-26T07:20:11.563Z,120.24
2023-03-26T07:24:11.574Z,126.82
2023-03-26T07:28:11.544Z,127.85
2023-03-26T07:32:11.527Z,129.06
2023-03-26T07:36:11.496Z,128.48
2023-03-26T07:40:11.492Z,123.93
2023-03-26T07:44:11.477Z,120.97
2023-03-26T07:48:11.445Z,123.74
2023-03-26T07:52:11.409Z,124.09
2023-03-26T07:56:11.399Z,124.22
2023-03-26T08:00:11.332Z,127.41
2023-03-26T08:04:24.192Z,123.14
2023-03-26T08:08:12.117Z,123.27
2023-03-26T08:12:10.938Z,129.31
2023-03-26T08:16:10.792Z,125.67
2023-03-26T08:20:10.584Z,123.15
2023-03-26T08:24:10.556Z,126.61
2023-03-26T08:28:10.489Z,127.38
2023-03-26T08:32:10.437Z,126.57
2023-03-26T08:36:10.402Z,127.65
2023-03-26T08:40:10.372Z,127.23
2023-03-26T08:44:10.325Z,125.26
2023-03-26T08:48:10.294Z,123.67
2023-03-26T08:52:10.268Z,122.73
2023-03-26T08:56:10.273Z,123.49
2023-03-26T09:00:10.166Z,125.82
2023-03-26T09:04:10.156Z,125.73
2023-03-26T09:08:10.047Z,125.20
2023-03-26T09:12:09.985Z,120.01
2023-03-26T09:16:09.974Z,119.67
2023-03-26T09:20:09.867Z,123.40
2023-03-26T09:24:09.819Z,118.58
2023-03-26T09:28:09.777Z,124.31
2023-03-26T09:32:09.727Z,119.10
2023-03-26T09:36:09.684Z,117.29
2023-03-26T09:40:09.641Z,119.69
2023-03-26T09:44:09.607Z,118.14
2023-03-26T09:48:09.780Z,118.18
2023-03-26T09:52:09.513Z,114.00
2023-03-26T09:56:09.467Z,120.12
2023-03-26T10:00:09.511Z,118.89
2023-03-26T10:04:09.454Z,115.52
2023-03-26T10:08:09.357Z,114.18
2023-03-26T10:12:09.325Z,121.15
2023-03-26T10:16:09.263Z,110.60
2023-03-26T10:20:09.307Z,112.68
2023-03-26T10:24:09.153Z,115.74
2023-03-26T10:28:09.105Z,116.16
2023-03-26T10:32:09.049Z,114.54
2023-03-26T10:36:09.002Z,116.59
2023-03-26T10:40:09.013Z,115.97
2023-03-26T10:44:09.259Z,117.26
2023-03-26T10:48:08.859Z,120.12
2023-03-26T10:52:08.769Z,116.02
2023-03-26T10:56:08.728Z,116.25
2023-03-26T11:00:08.672Z,118.17
2023-03-26T11:04:08.789Z,118.57
2023-03-26T11:08:08.638Z,114.88
2023-03-26T11:12:26.693Z,117.12
2023-03-26T11:16:09.385Z,117.00
2023-03-26T11:20:08.189Z,116.69
2023-03-26T11:24:07.990Z,117.50
2023-03-26T11:28:07.829Z,115.95
2023-03-26T11:32:07.664Z,117.30
2023-03-26T11:36:07.567Z,119.17
2023-03-26T11:40:07.330Z,113.11
2023-03-26T11:44:07.182Z,113.30
2023-03-26T11:48:07.040Z,114.11
2023-03-26T11:52:06.816Z,113.77
2023-03-26T11:56:07.274Z,112.71
2023-03-26T12:00:06.477Z,114.99
2023-03-26T12:04:06.542Z,108.31
2023-03-26T12:08:06.364Z,114.59
2023-03-26T12:12:06.264Z,110.08
2023-03-26T12:16:06.819Z,111.08
2023-03-26T12:20:06.193Z,112.75
2023-03-26T12:24:06.174Z,113.01
2023-03-26T12:28:06.186Z,113.18
2023-03-26T12:32:06.142Z,115.67
2023-03-26T12:36:06.082Z,113.49
2023-03-26T12:40:09.885Z,112.59
2023-03-26T12:44:48.826Z,111.06
2023-03-26T12:48:06.684Z,111.15
2023-03-26T12:52:05.563Z,113.79
2023-03-26T12:56:05.222Z,114.81
2023-03-26T13:00:05.061Z,115.86
2023-03-26T13:04:04.910Z,113.91
2023-03-26T13:08:04.673Z,110.71
2023-03-26T13:12:04.495Z,106.24
2023-03-26T13:16:04.396Z,110.37
2023-03-26T13:20:04.131Z,109.24
2023-03-26T13:24:04.009Z,112.14
2023-03-26T13:28:03.848Z,111.91
2023-03-26T13:32:03.822Z,109.48
2023-03-26T13:36:21.917Z,112.07
2023-03-26T13:40:04.609Z,112.47
2023-03-26T13:44:03.441Z,109.21
2023-03-26T13:48:03.313Z,106.82
2023-03-26T13:52:03.135Z,108.86
2023-03-26T13:56:03.141Z,108.95
2023-03-26T14:00:03.149Z,105.52
2023-03-26T14:04:03.382Z,107.81
2023-03-26T14:08:03.141Z,106.42
2023-03-26T14:12:03.121Z,109.18
2023-03-26T14:16:03.108Z,105.64
2023-03-26T14:20:03.051Z,105.79
2023-03-26T14:24:03.032Z,106.74
2023-03-26T14:28:03.261Z,103.74
2023-03-26T14:32:02.976Z,103.22
2023-03-26T14:36:02.994Z,99.68
2023-03-26T14:40:02.936Z,102.78
2023-03-26T14:44:02.931Z,103.71
2023-03-26T14:48:02.969Z,102.24
2023-03-26T14:52:02.921Z,104.36
2023-03-26T14:56:02.852Z,104.54
2023-03-26T15:00:02.842Z,99.50
2023-03-26T15:04:02.814Z,100.59
2023-03-26T15:08:02.806Z,101.59
2023-03-26T15:12:12.945Z,102.15
2023-03-26T15:16:03.615Z,103.28
2023-03-26T15:20:02.439Z,100.08
2023-03-26T15:24:02.235Z,98.87
2023-03-26T15:28:02.270Z,98.03
2023-03-26T15:32:02.274Z,101.01
2023-03-26T15:36:02.233Z,95.15
2023-03-26T15:40:02.282Z,100.91
2023-03-26T15:44:23.444Z,102.07
2023-03-26T15:48:03.814Z,100.13
2023-03-26T15:52:01.780Z,107.53
2023-03-26T15:56:01.685Z,101.77
2023-03-26T16:00:01.668Z,105.10
2023-03-26T16:04:01.608Z,104.99
2023-03-26T16:08:01.641Z,105.48
2023-03-26T16:12:01.563Z,106.55
2023-03-26T16:16:01.598Z,109.53
2023-03-26T16:20:01.521Z,110.01
2023-03-26T16:24:01.492Z,107.64
2023-03-26T16:28:01.758Z,105.71
2023-03-26T16:32:01.526Z,110.12
2023-03-26T16:36:01.471Z,110.16
2023-03-26T16:40:01.425Z,112.68
2023-03-26T16:44:01.433Z,109.88
2023-03-26T16:48:01.499Z,107.36
2023-03-26T16:52:01.438Z,112.09
2023-03-26T16:56:01.453Z,108.02
2023-03-26T17:00:05.683Z,111.66
2023-03-26T17:04:02.273Z,111.52
2023-03-26T17:08:01.101Z,111.82
2023-03-26T17:12:01.013Z,111.98
2023-03-26T17:16:01.103Z,105.96
2023-03-26T17:20:01.012Z,111.40
2023-03-26T17:24:01.029Z,110.32
2023-03-26T17:28:01.034Z,112.03
2023-03-26T17:32:01.187Z,117.68
2023-03-26T17:36:01.066Z,114.59
2023-03-26T17:40:01.049Z,114.74
2023-03-26T17:44:01.077Z,116.66
2023-03-26T17:48:01.117Z,117.89
2023-03-26T17:52:01.112Z,118.06
2023-03-26T17:56:01.142Z,117.94
2023-03-26T18:00:01.176Z,118.03
2023-03-26T18:04:01.191Z,117.88
2023-03-26T18:08:01.261Z,118.30
2023-03-26T18:12:01.235Z,117.52
2023-03-26T18:16:01.280Z,113.88
2023-03-26T18:20:01.237Z,113.98
2023-03-26T18:24:01.264Z,110.97
2023-03-26T18:28:01.289Z,116.49
2023-03-26T18:32:01.388Z,110.68
2023-03-26T18:36:01.395Z,112.53
2023-03-26T18:40:01.406Z,113.67
2023-03-26T18:44:01.455Z,106.98
2023-03-26T18:48:01.533Z,112.58
2023-03-26T18:52:01.516Z,110.22
2023-03-26T18:56:01.569Z,109.17
2023-03-26T19:00:01.574Z,112.26
2023-03-26T19:04:01.607Z,111.54
2023-03-26T19:08:01.631Z,109.73
2023-03-26T19:12:01.645Z,108.45
2023-03-26T19:16:01.681Z,107.51
2023-03-26T19:20:01.721Z,112.85
2023-03-26T19:24:01.745Z,115.93
2023-03-26T19:28:02.246Z,114.04
2023-03-26T19:32:01.846Z,110.95
2023-03-26T19:36:01.896Z,116.71
2023-03-26T19:40:01.910Z,114.16
2023-03-26T19:44:01.959Z,110.84
2023-03-26T19:48:14.351Z,115.92
2023-03-26T19:52:02.850Z,116.36
2023-03-26T19:56:01.647Z,109.14
2023-03-26T20:00:01.636Z,113.73
2023-03-26T20:04:01.768Z,110.55
2023-03-26T20:08:01.710Z,109.94
2023-03-26T20:12:01.740Z,104.80
2023-03-26T20:16:05.525Z,103.24
2023-03-26T20:20:01.606Z,105.05
2023-03-26T20:24:01.430Z,108.54
2023-03-26T20:28:01.233Z,106.44
2023-03-26T20:32:01.087Z,106.77
2023-03-26T20:36:01.022Z,106.77
2023-03-26T20:40:00.727Z,105.94
2023-03-26T20:44:00.607Z,104.29
2023-03-26T20:48:00.358Z,108.96
2023-03-26T20:52:00.200Z,105.78
2023-03-26T20:55:59.979Z,105.58
2023-03-26T20:59:59.750Z,105.60
2023-03-26T21:03:59.561Z,111.14
2023-03-26T21:07:59.369Z,108.58
2023-03-26T21:11:59.196Z,111.20
2023-03-26T21:16:00.922Z,109.64
2023-03-26T21:19:59.297Z,107.95
2023-03-26T21:23:59.395Z,108.16
2023-03-26T21:27:59.422Z,107.47
2023-03-26T21:31:59.579Z,106.39
2023-03-26T21:35:59.657Z,107.34
2023-03-26T21:39:59.694Z,108.33
2023-03-26T21:43:59.766Z,109.50
2023-03-26T21:47:59.869Z,109.52
2023-03-26T21:51:59.938Z,107.76
2023-03-26T21:55:59.994Z,105.62
2023-03-26T22:00:00.093Z,107.67
2023-03-26T22:04:00.246Z,110.38
2023-03-26T22:08:00.198Z,107.01
2023-03-26T22:12:00.071Z,109.60
2023-03-26T22:15:59.877Z,106.60
2023-03-26T22:19:59.676Z,105.39
2023-03-26T22:23:59.509Z,108.48
2023-03-26T22:27:59.401Z,105.55
2023-03-26T22:31:59.142Z,106.76
2023-03-26T22:35:59.008Z,105.92
2023-03-26T22:39:58.789Z,104.94
2023-03-26T22:44:01.507Z,104.39
2023-03-26T22:48:03.744Z,105.93
2023-03-26T22:51:59.312Z,106.48
2023-03-26T22:55:58.744Z,109.33
2023-03-26T22:59:57.957Z,101.45
2023-03-26T23:03:57.817Z,102.61
2023-03-26T23:07:57.624Z,104.70
2023-03-26T23:11:57.443Z,101.97
2023-03-26T23:15:57.428Z,103.46
2023-03-26T23:19:57.466Z,101.46
2023-03-26T23:23:57.535Z,101.94
2023-03-26T23:27:57.593Z,102.83
2023-03-26T23:31:57.729Z,100.08
2023-03-26T23:35:57.843Z,100.66
2023-03-26T23:39:57.794Z,101.91
2023-03-26T23:43:57.857Z,99.71
2023-03-26T23:47:57.982Z,102.82
2023-03-26T23:51:57.998Z,102.24
2023-03-26T23:55:58.074Z,103.41
2023-03-26T23:59:58.248Z,100.00
